createdAt,value
2019-02-18T00:02:38.536Z,-0.50
2019-02-18T00:05:25.994Z,-0.60
2019-02-18T00:08:13.437Z,-0.60
2019-02-18T00:11:00.830Z,-0.60
2019-02-18T00:13:48.548Z,-0.70
2019-02-18T00:16:36.432Z,-0.80
2019-02-18T00:19:24.017Z,-0.90
2019-02-18T00:22:11.597Z,-1.10
2019-02-18T00:24:58.731Z,-1.10
2019-02-18T00:27:45.936Z,-1.20
2019-02-18T00:30:33.732Z,-1.00
2019-02-18T00:33:21.226Z,-1.10
2019-02-18T00:36:08.921Z,-1.20
2019-02-18T00:38:57.350Z,-1.30
2019-02-18T00:41:45.042Z,-1.20
2019-02-18T00:44:32.781Z,-1.30
2019-02-18T00:47:20.799Z,-1.20
2019-02-18T00:50:08.589Z,-1.30
2019-02-18T00:52:56.545Z,-1.20
2019-02-18T00:55:43.981Z,-1.40
2019-02-18T00:58:31.461Z,-1.50
2019-02-18T01:01:18.936Z,-1.40
2019-02-18T01:04:06.420Z,-1.40
2019-02-18T01:06:54.433Z,-1.40
2019-02-18T01:09:42.058Z,-1.50
2019-02-18T01:12:29.849Z,-1.50
2019-02-18T01:15:20.548Z,-1.50
2019-02-18T01:18:07.754Z,-1.40
2019-02-18T01:20:55.482Z,-1.50
2019-02-18T01:23:42.983Z,-1.50
2019-02-18T01:26:30.174Z,-1.50
2019-02-18T01:29:17.736Z,-1.60
2019-02-18T01:32:05.441Z,-1.50
2019-02-18T01:34:53.043Z,-1.60
2019-02-18T01:37:45.810Z,-1.60
2019-02-18T01:40:29.500Z,-1.60
2019-02-18T01:43:16.801Z,-1.70
2019-02-18T01:46:04.461Z,-1.80
2019-02-18T01:48:52.178Z,-1.80
2019-02-18T01:51:39.850Z,-1.90
2019-02-18T01:54:27.486Z,-2.00
2019-02-18T01:57:14.909Z,-2.10
2019-02-18T02:00:02.635Z,-2.10
2019-02-18T02:02:49.847Z,-2.20
2019-02-18T02:05:37.480Z,-2.10
2019-02-18T02:08:25.030Z,-2.10
2019-02-18T02:11:12.886Z,-2.10
2019-02-18T02:14:00.556Z,-2.30
2019-02-18T02:16:48.464Z,-2.20
2019-02-18T02:19:37.956Z,-2.10
2019-02-18T02:22:25.450Z,-2.20
2019-02-18T02:25:13.420Z,-2.20
2019-02-18T02:28:01.075Z,-2.20
2019-02-18T02:30:48.856Z,-2.30
2019-02-18T02:33:35.941Z,-2.30
2019-02-18T02:36:23.841Z,-2.30
2019-02-18T02:39:11.346Z,-2.30
2019-02-18T02:41:58.869Z,-2.40
2019-02-18T02:44:46.734Z,-2.50
2019-02-18T02:47:34.178Z,-2.40
2019-02-18T02:50:22.093Z,-2.40
2019-02-18T02:53:10.138Z,-2.40
2019-02-18T02:55:57.510Z,-2.50
2019-02-18T02:58:44.925Z,-2.50
2019-02-18T03:01:32.764Z,-2.50
2019-02-18T03:04:20.453Z,-2.50
2019-02-18T03:07:07.564Z,-2.40
2019-02-18T03:09:55.006Z,-2.50
2019-02-18T03:12:42.578Z,-2.60
2019-02-18T03:15:30.266Z,-2.50
2019-02-18T03:18:17.586Z,-2.60
2019-02-18T03:21:05.389Z,-2.50
2019-02-18T03:23:52.894Z,-2.50
2019-02-18T03:26:40.750Z,-2.60
2019-02-18T03:30:17.443Z,-2.60
2019-02-18T03:33:05.284Z,-2.60
2019-02-18T03:35:53.038Z,-2.60
2019-02-18T03:38:40.615Z,-2.70
2019-02-18T03:41:28.431Z,-2.80
2019-02-18T03:44:15.891Z,-2.90
2019-02-18T03:47:03.057Z,-3.00
2019-02-18T03:49:50.338Z,-3.10
2019-02-18T03:52:37.736Z,-2.90
2019-02-18T03:55:25.381Z,-2.90
2019-02-18T03:58:13.149Z,-2.80
2019-02-18T04:01:00.573Z,-2.90
2019-02-18T04:03:47.887Z,-2.90
2019-02-18T04:06:35.292Z,-3.00
2019-02-18T04:09:22.745Z,-3.00
2019-02-18T04:12:10.321Z,-3.00
2019-02-18T04:14:58.542Z,-3.00
2019-02-18T04:17:45.684Z,-3.00
2019-02-18T04:20:33.253Z,-2.90
2019-02-18T04:23:21.182Z,-3.00
2019-02-18T04:26:08.627Z,-3.00
2019-02-18T04:28:55.981Z,-3.00
2019-02-18T04:31:43.304Z,-3.10
2019-02-18T04:34:30.743Z,-3.10
2019-02-18T04:37:17.820Z,-3.00
2019-02-18T04:40:05.133Z,-2.90
2019-02-18T04:42:53.089Z,-3.00
2019-02-18T04:45:40.605Z,-3.00
2019-02-18T04:48:28.467Z,-3.00
2019-02-18T04:51:15.884Z,-3.00
2019-02-18T04:54:03.539Z,-3.20
2019-02-18T04:56:50.658Z,-3.20
2019-02-18T04:59:38.078Z,-3.30
2019-02-18T05:02:25.743Z,-3.40
2019-02-18T05:05:13.647Z,-3.30
2019-02-18T05:08:00.799Z,-3.40
2019-02-18T05:10:47.943Z,-3.30
2019-02-18T05:13:35.910Z,-3.50
2019-02-18T05:16:23.439Z,-3.50
2019-02-18T05:19:10.520Z,-3.50
2019-02-18T05:21:57.821Z,-3.60
2019-02-18T05:24:45.306Z,-3.40
2019-02-18T05:27:33.663Z,-3.40
2019-02-18T05:30:21.342Z,-3.50
2019-02-18T05:33:09.118Z,-3.60
2019-02-18T05:35:56.939Z,-3.50
2019-02-18T05:38:44.207Z,-3.50
2019-02-18T05:41:31.876Z,-3.70
2019-02-18T05:44:19.288Z,-3.80
2019-02-18T05:47:06.446Z,-3.80
2019-02-18T05:49:54.699Z,-3.90
2019-02-18T05:52:42.364Z,-3.60
2019-02-18T05:55:31.095Z,-3.70
2019-02-18T05:58:18.935Z,-3.70
2019-02-18T06:01:06.385Z,-3.70
2019-02-18T06:03:53.499Z,-3.80
2019-02-18T06:06:40.921Z,-3.80
2019-02-18T06:09:30.211Z,-3.80
2019-02-18T06:12:17.559Z,-3.80
2019-02-18T06:15:05.737Z,-3.80
2019-02-18T06:17:53.130Z,-3.90
2019-02-18T06:20:40.759Z,-3.90
2019-02-18T06:23:28.641Z,-3.90
2019-02-18T06:26:16.356Z,-3.90
2019-02-18T06:29:03.855Z,-3.90
2019-02-18T06:31:51.666Z,-4.00
2019-02-18T06:34:39.122Z,-4.00
2019-02-18T06:37:26.528Z,-4.00
2019-02-18T06:40:13.909Z,-3.90
2019-02-18T06:43:01.436Z,-4.00
2019-02-18T06:46:10.533Z,-3.90
2019-02-18T06:49:17.165Z,-3.80
2019-02-18T06:52:04.767Z,-3.70
2019-02-18T06:54:52.654Z,-3.70
2019-02-18T06:57:58.092Z,-3.50
2019-02-18T07:00:51.165Z,-3.50
2019-02-18T07:03:57.381Z,-3.60
2019-02-18T07:06:54.403Z,-3.50
2019-02-18T07:10:19.145Z,-3.40
2019-02-18T07:13:06.801Z,-3.40
2019-02-18T07:15:54.228Z,-3.20
2019-02-18T07:18:41.700Z,-3.10
2019-02-18T07:21:29.230Z,-3.00
2019-02-18T07:24:17.045Z,-2.70
2019-02-18T07:27:05.159Z,-2.30
2019-02-18T07:29:52.874Z,-1.90
2019-02-18T07:32:40.300Z,-1.10
2019-02-18T07:35:27.515Z,-0.80
2019-02-18T07:38:15.103Z,-0.60
2019-02-18T07:41:02.374Z,-0.40
2019-02-18T07:43:50.057Z,0.10
2019-02-18T07:46:37.627Z,1.60
2019-02-18T07:49:24.825Z,1.80
2019-02-18T07:52:11.886Z,1.50
2019-02-18T07:54:59.349Z,2.40
2019-02-18T07:57:46.622Z,3.20
2019-02-18T08:00:33.840Z,2.80
2019-02-18T08:03:21.533Z,3.20
2019-02-18T08:06:09.089Z,2.90
2019-02-18T08:08:57.128Z,2.80
2019-02-18T08:11:44.678Z,2.80
2019-02-18T08:14:32.213Z,2.70
2019-02-18T08:17:19.606Z,2.80
2019-02-18T08:20:06.950Z,3.20
2019-02-18T08:22:54.567Z,5.00
2019-02-18T08:25:41.744Z,5.90
2019-02-18T08:28:29.346Z,5.60
2019-02-18T08:31:16.809Z,6.60
2019-02-18T08:34:04.694Z,6.90
2019-02-18T08:36:52.330Z,7.30
2019-02-18T08:39:40.255Z,7.70
2019-02-18T08:42:27.914Z,7.20
2019-02-18T08:45:15.763Z,6.40
2019-02-18T08:48:03.449Z,5.90
2019-02-18T08:50:51.033Z,6.60
2019-02-18T08:53:38.420Z,6.80
2019-02-18T08:56:25.546Z,6.40
2019-02-18T08:59:12.637Z,6.20
2019-02-18T09:01:59.995Z,6.40
2019-02-18T09:04:47.757Z,6.90
2019-02-18T09:07:35.343Z,6.70
2019-02-18T09:10:32.706Z,6.60
2019-02-18T09:13:12.119Z,6.50
2019-02-18T09:16:00.590Z,6.90
2019-02-18T09:18:48.040Z,7.30
2019-02-18T09:21:35.768Z,7.40
2019-02-18T09:24:27.507Z,7.00
2019-02-18T09:27:15.169Z,6.40
2019-02-18T09:30:03.021Z,6.70
2019-02-18T09:32:50.137Z,7.10
2019-02-18T09:35:37.781Z,8.10
2019-02-18T09:38:25.692Z,8.20
2019-02-18T09:41:13.181Z,7.60
2019-02-18T09:44:00.498Z,7.50
2019-02-18T09:46:47.649Z,7.60
2019-02-18T09:49:34.903Z,7.90
2019-02-18T09:52:22.223Z,8.00
2019-02-18T09:55:09.774Z,8.20
2019-02-18T09:57:57.087Z,8.50
2019-02-18T10:00:44.682Z,8.60
2019-02-18T10:03:32.457Z,8.70
2019-02-18T10:06:20.011Z,9.00
2019-02-18T10:09:07.546Z,8.80
2019-02-18T10:11:55.098Z,8.60
2019-02-18T10:14:42.694Z,9.00
2019-02-18T10:17:30.368Z,9.70
2019-02-18T10:20:18.151Z,10.10
2019-02-18T10:23:05.399Z,10.30
2019-02-18T10:25:52.984Z,11.30
2019-02-18T10:28:40.157Z,11.00
2019-02-18T10:31:27.582Z,11.40
2019-02-18T10:34:14.729Z,11.20
2019-02-18T10:37:02.083Z,10.80
2019-02-18T10:39:50.343Z,11.20
2019-02-18T10:42:38.809Z,11.80
2019-02-18T10:45:28.456Z,11.60
2019-02-18T10:48:19.978Z,11.80
2019-02-18T10:51:10.818Z,12.00
2019-02-18T10:54:08.477Z,12.10
2019-02-18T10:56:58.573Z,12.20
2019-02-18T10:59:46.832Z,12.30
2019-02-18T11:02:37.554Z,12.20
2019-02-18T11:05:25.553Z,13.10
2019-02-18T11:08:14.402Z,13.30
2019-02-18T11:11:01.683Z,13.10
2019-02-18T11:13:48.763Z,12.80
2019-02-18T11:16:35.909Z,12.40
2019-02-18T11:19:23.774Z,12.20
2019-02-18T11:22:10.945Z,12.50
2019-02-18T11:24:58.882Z,12.80
2019-02-18T11:27:46.188Z,14.50
2019-02-18T11:30:33.676Z,14.80
2019-02-18T11:33:21.552Z,14.80
2019-02-18T11:36:09.344Z,15.60
2019-02-18T11:38:57.206Z,15.20
2019-02-18T11:41:44.884Z,16.00
2019-02-18T11:44:32.541Z,15.60
2019-02-18T11:47:20.295Z,15.30
2019-02-18T11:50:08.873Z,15.50
2019-02-18T11:52:56.477Z,15.20
2019-02-18T11:55:44.506Z,15.20
2019-02-18T11:58:32.119Z,15.00
2019-02-18T12:01:19.242Z,15.10
2019-02-18T12:04:06.540Z,15.40
2019-02-18T12:06:54.383Z,15.50
2019-02-18T12:09:41.734Z,15.60
2019-02-18T12:12:29.450Z,16.30
2019-02-18T12:15:17.177Z,16.10
2019-02-18T12:18:04.705Z,16.40
2019-02-18T12:20:52.628Z,16.40
2019-02-18T12:23:40.184Z,16.50
2019-02-18T12:26:27.287Z,17.50
2019-02-18T12:29:14.960Z,17.30
2019-02-18T12:32:02.752Z,17.10
2019-02-18T12:34:51.016Z,17.10
2019-02-18T12:37:39.770Z,17.70
2019-02-18T12:40:27.267Z,18.00
2019-02-18T12:43:14.889Z,17.80
2019-02-18T12:46:01.966Z,17.50
2019-02-18T12:48:49.579Z,17.30
2019-02-18T12:51:37.405Z,17.40
2019-02-18T12:54:25.213Z,17.40
2019-02-18T12:57:12.594Z,17.70
2019-02-18T13:00:00.731Z,17.50
2019-02-18T13:02:48.636Z,18.10
2019-02-18T13:05:36.353Z,19.00
2019-02-18T13:08:25.141Z,19.70
2019-02-18T13:11:12.768Z,20.00
2019-02-18T13:14:00.615Z,20.20
2019-02-18T13:16:47.958Z,20.00
2019-02-18T13:19:35.706Z,20.10
2019-02-18T13:22:23.454Z,20.30
2019-02-18T13:25:11.164Z,20.20
2019-02-18T13:27:59.177Z,20.70
2019-02-18T13:30:46.551Z,20.90
2019-02-18T13:33:34.382Z,21.10
2019-02-18T13:36:23.092Z,21.10
2019-02-18T13:39:10.346Z,21.00
2019-02-18T13:41:58.037Z,21.00
2019-02-18T13:44:45.450Z,21.20
2019-02-18T13:47:33.132Z,21.20
2019-02-18T13:50:20.804Z,21.20
2019-02-18T13:53:08.579Z,21.20
2019-02-18T13:55:56.254Z,21.60
2019-02-18T13:58:43.986Z,21.80
2019-02-18T14:01:31.982Z,22.60
2019-02-18T14:04:19.677Z,23.00
2019-02-18T14:07:07.974Z,23.40
2019-02-18T14:09:55.297Z,23.90
2019-02-18T14:12:42.911Z,24.70
2019-02-18T14:15:31.031Z,25.20
2019-02-18T14:18:18.549Z,25.50
2019-02-18T14:21:05.958Z,25.60
2019-02-18T14:23:53.801Z,25.90
2019-02-18T14:26:42.699Z,26.30
2019-02-18T14:29:29.985Z,26.10
2019-02-18T14:32:17.594Z,26.90
2019-02-18T14:35:05.920Z,26.80
2019-02-18T14:37:53.407Z,26.80
2019-02-18T14:40:40.987Z,26.80
2019-02-18T14:43:28.769Z,26.90
2019-02-18T14:46:15.968Z,26.60
2019-02-18T14:49:03.850Z,26.60
2019-02-18T14:51:51.254Z,26.40
2019-02-18T14:54:38.578Z,26.90
2019-02-18T14:57:26.371Z,26.40
2019-02-18T15:00:21.687Z,26.60
2019-02-18T15:03:08.897Z,27.40
2019-02-18T15:05:56.913Z,27.40
2019-02-18T15:08:44.216Z,27.30
2019-02-18T15:11:32.004Z,26.70
2019-02-18T15:14:19.431Z,26.40
2019-02-18T15:17:06.970Z,26.60
2019-02-18T15:19:54.558Z,26.30
2019-02-18T15:22:42.190Z,26.40
2019-02-18T15:25:30.829Z,26.80
2019-02-18T15:28:18.607Z,27.30
2019-02-18T15:31:06.097Z,27.40
2019-02-18T15:33:54.468Z,26.80
2019-02-18T15:36:42.465Z,26.60
2019-02-18T15:39:29.638Z,26.30
2019-02-18T15:42:17.077Z,25.80
2019-02-18T15:45:05.142Z,25.90
2019-02-18T15:48:01.337Z,25.90
2019-02-18T15:50:42.007Z,26.30
2019-02-18T15:53:29.086Z,26.00
2019-02-18T15:56:17.115Z,26.40
2019-02-18T15:59:04.701Z,25.80
2019-02-18T16:01:52.445Z,24.20
2019-02-18T16:04:39.876Z,22.90
2019-02-18T16:07:27.674Z,21.50
2019-02-18T16:10:15.146Z,19.90
2019-02-18T16:13:02.520Z,19.40
2019-02-18T16:15:50.430Z,18.90
2019-02-18T16:18:38.176Z,18.50
2019-02-18T16:21:25.822Z,18.20
2019-02-18T16:24:20.048Z,17.80
2019-02-18T16:27:02.675Z,17.20
2019-02-18T16:29:50.037Z,16.80
2019-02-18T16:32:38.333Z,16.40
2019-02-18T16:35:25.429Z,15.90
2019-02-18T16:38:12.897Z,15.10
2019-02-18T16:41:00.566Z,14.50
2019-02-18T16:43:49.185Z,13.90
2019-02-18T16:46:38.045Z,13.40
2019-02-18T16:49:26.131Z,13.10
2019-02-18T16:52:13.357Z,12.60
2019-02-18T16:55:00.493Z,12.10
2019-02-18T16:57:47.618Z,11.60
2019-02-18T17:00:35.520Z,11.30
2019-02-18T17:03:23.333Z,11.00
2019-02-18T17:06:11.026Z,10.80
2019-02-18T17:08:58.794Z,10.60
2019-02-18T17:11:46.324Z,10.40
2019-02-18T17:14:33.703Z,10.20
2019-02-18T17:17:21.606Z,10.00
2019-02-18T17:20:09.134Z,9.70
2019-02-18T17:22:56.689Z,9.60
2019-02-18T17:25:45.762Z,9.50
2019-02-18T17:28:33.104Z,9.40
2019-02-18T17:31:20.442Z,9.20
2019-02-18T17:34:07.918Z,9.20
2019-02-18T17:36:55.531Z,9.00
2019-02-18T17:39:43.395Z,8.70
2019-02-18T17:42:31.165Z,8.40
2019-02-18T17:45:19.493Z,8.30
2019-02-18T17:48:07.491Z,8.00
2019-02-18T17:50:55.094Z,7.70
2019-02-18T17:53:42.214Z,7.50
2019-02-18T17:56:29.662Z,7.30
2019-02-18T17:59:16.707Z,7.20
2019-02-18T18:02:04.646Z,7.00
2019-02-18T18:04:52.608Z,6.80
2019-02-18T18:07:39.776Z,6.80
2019-02-18T18:10:26.843Z,6.60
2019-02-18T18:13:14.533Z,6.40
2019-02-18T18:16:09.290Z,6.30
2019-02-18T18:19:09.096Z,6.30
2019-02-18T18:21:55.135Z,6.00
2019-02-18T18:24:46.261Z,5.90
2019-02-18T18:27:34.701Z,5.90
2019-02-18T18:30:22.933Z,6.00
2019-02-18T18:33:17.942Z,5.70
2019-02-18T18:36:10.267Z,5.50
2019-02-18T18:39:07.828Z,5.50
2019-02-18T18:42:06.345Z,5.30
2019-02-18T18:44:58.956Z,5.40
2019-02-18T18:47:48.855Z,5.30
2019-02-18T18:50:43.336Z,5.10
2019-02-18T18:53:37.753Z,5.10
2019-02-18T18:56:36.637Z,4.90
2019-02-18T18:59:27.567Z,4.90
2019-02-18T19:02:29.735Z,4.70
2019-02-18T19:05:37.628Z,4.60
2019-02-18T19:08:27.797Z,4.60
2019-02-18T19:11:17.594Z,4.60
2019-02-18T19:14:05.958Z,4.40
2019-02-18T19:16:55.712Z,4.20
2019-02-18T19:23:53.505Z,4.20
2019-02-18T19:26:43.909Z,4.00
2019-02-18T19:29:32.525Z,3.90
2019-02-18T19:32:23.073Z,3.80
2019-02-18T19:35:14.270Z,3.80
2019-02-18T19:38:14.081Z,3.70
2019-02-18T19:41:12.480Z,3.70
2019-02-18T19:44:00.710Z,3.70
2019-02-18T19:46:50.505Z,3.70
2019-02-18T19:49:39.150Z,3.60
2019-02-18T19:53:34.854Z,3.50
2019-02-18T19:56:23.743Z,3.40
2019-02-18T19:59:11.965Z,3.10
2019-02-18T20:01:59.528Z,3.00
2019-02-18T20:04:47.058Z,2.80
2019-02-18T20:07:34.544Z,2.70
2019-02-18T20:10:22.905Z,2.70
2019-02-18T20:13:11.396Z,2.60
2019-02-18T20:15:59.474Z,2.60
2019-02-18T20:18:46.889Z,2.70
2019-02-18T20:21:34.729Z,2.70
2019-02-18T20:24:22.259Z,2.70
2019-02-18T20:27:09.895Z,2.60
2019-02-18T20:29:58.271Z,2.70
2019-02-18T20:32:46.056Z,2.60
2019-02-18T20:35:34.750Z,2.50
2019-02-18T20:38:22.929Z,2.30
2019-02-18T20:41:10.989Z,2.40
2019-02-18T20:44:07.146Z,2.40
2019-02-18T20:46:48.789Z,2.20
2019-02-18T20:49:36.314Z,2.10
2019-02-18T20:52:23.554Z,2.20
2019-02-18T20:55:11.729Z,2.10
2019-02-18T20:57:59.008Z,2.00
2019-02-18T21:00:46.927Z,1.90
2019-02-18T21:03:35.099Z,1.90
2019-02-18T21:06:22.988Z,1.90
2019-02-18T21:09:10.678Z,1.70
2019-02-18T21:11:58.340Z,1.60
2019-02-18T21:14:46.082Z,1.50
2019-02-18T21:17:33.547Z,1.50
2019-02-18T21:20:20.948Z,1.50
2019-02-18T21:23:08.625Z,1.30
2019-02-18T21:25:56.073Z,1.30
2019-02-18T21:28:43.602Z,1.40
2019-02-18T21:31:31.352Z,1.40
2019-02-18T21:34:18.549Z,1.40
2019-02-18T21:37:06.053Z,1.30
2019-02-18T21:39:53.854Z,1.30
2019-02-18T21:42:44.228Z,1.20
2019-02-18T21:45:31.936Z,1.20
2019-02-18T21:48:19.713Z,1.10
2019-02-18T21:51:07.204Z,1.00
2019-02-18T21:53:55.006Z,1.00
2019-02-18T21:56:42.671Z,1.00
2019-02-18T21:59:29.860Z,0.90
2019-02-18T22:02:17.319Z,0.90
2019-02-18T22:05:04.839Z,0.70
2019-02-18T22:07:52.580Z,0.60
2019-02-18T22:10:40.283Z,0.70
2019-02-18T22:13:27.976Z,0.70
2019-02-18T22:16:15.322Z,0.80
2019-02-18T22:19:02.380Z,0.70
2019-02-18T22:21:50.050Z,0.70
2019-02-18T22:24:37.505Z,0.70
2019-02-18T22:27:25.430Z,0.70
2019-02-18T22:30:13.206Z,0.60
2019-02-18T22:33:01.123Z,0.60
2019-02-18T22:35:48.701Z,0.40
2019-02-18T22:38:36.112Z,0.40
2019-02-18T22:41:23.766Z,0.40
2019-02-18T22:44:11.593Z,0.40
2019-02-18T22:46:59.784Z,0.40
2019-02-18T22:49:47.203Z,0.50
2019-02-18T22:52:34.544Z,0.40
2019-02-18T22:55:21.891Z,0.20
2019-02-18T22:58:09.803Z,0.10
2019-02-18T23:01:00.081Z,0.10
2019-02-18T23:03:48.020Z,0.10
2019-02-18T23:06:35.691Z,0.00
2019-02-18T23:09:22.901Z,0.00
2019-02-18T23:12:10.557Z,-0.10
2019-02-18T23:14:58.014Z,-0.10
2019-02-18T23:17:45.622Z,0.00
2019-02-18T23:20:33.545Z,-0.10
2019-02-18T23:23:20.897Z,0.00
2019-02-18T23:26:08.785Z,0.00
2019-02-18T23:28:56.277Z,0.00
2019-02-18T23:31:43.730Z,0.10
2019-02-18T23:34:31.561Z,0.20
2019-02-18T23:37:19.044Z,0.00
2019-02-18T23:40:06.420Z,0.00
2019-02-18T23:42:54.618Z,0.00
2019-02-18T23:45:42.147Z,-0.10
2019-02-18T23:48:29.259Z,-0.10
2019-02-18T23:51:16.284Z,-0.20
2019-02-18T23:54:04.261Z,-0.30
2019-02-18T23:56:51.896Z,-0.40
2019-02-18T23:59:39.163Z,-0.30
